sensor_id;sensor_type;location;lat;lon;timestamp;P1;durP1;ratioP1;P2;durP2;ratioP2
13455;SDS011;6800;50.940;6.940;2022-12-18T00:02:40;24.87;;;17.70;;
13455;SDS011;6800;50.940;6.940;2022-12-18T00:06:40;22.93;;;18.17;;
13455;SDS011;6800;50.940;6.940;2022-12-18T00:10:40;24.65;;;17.38;;
13455;SDS011;6800;50.940;6.940;2022-12-18T00:14:41;22.40;;;17.10;;
13455;SDS011;6800;50.940;6.940;2022-12-18T00:18:42;25.20;;;18.20;;
13455;SDS011;6800;50.940;6.940;2022-12-18T00:22:42;23.50;;;16.83;;
13455;SDS011;6800;50.940;6.940;2022-12-18T00:26:43;28.17;;;18.87;;
13455;SDS011;6800;50.940;6.940;2022-12-18T00:30:43;29.25;;;19.70;;
13455;SDS011;6800;50.940;6.940;2022-12-18T00:34:43;21.70;;;17.08;;
13455;SDS011;6800;50.940;6.940;2022-12-18T00:38:44;21.15;;;16.52;;
13455;SDS011;6800;50.940;6.940;2022-12-18T00:42:44;27.33;;;19.47;;
13455;SDS011;6800;50.940;6.940;2022-12-18T00:46:57;20.03;;;16.47;;
13455;SDS011;6800;50.940;6.940;2022-12-18T00:50:58;19.30;;;16.40;;
13455;SDS011;6800;50.940;6.940;2022-12-18T00:54:58;21.30;;;16.90;;
13455;SDS011;6800;50.940;6.940;2022-12-18T00:58:59;24.13;;;17.85;;
13455;SDS011;6800;50.940;6.940;2022-12-18T01:02:59;26.27;;;19.30;;
13455;SDS011;6800;50.940;6.940;2022-12-18T01:06:59;26.03;;;20.57;;
13455;SDS011;6800;50.940;6.940;2022-12-18T01:11:00;21.73;;;17.43;;
13455;SDS011;6800;50.940;6.940;2022-12-18T01:15:01;25.77;;;19.17;;
13455;SDS011;6800;50.940;6.940;2022-12-18T01:19:02;23.57;;;17.73;;
13455;SDS011;6800;50.940;6.940;2022-12-18T01:23:02;25.50;;;19.75;;
13455;SDS011;6800;50.940;6.940;2022-12-18T01:27:03;23.87;;;18.63;;
13455;SDS011;6800;50.940;6.940;2022-12-18T01:31:10;23.73;;;18.20;;
13455;SDS011;6800;50.940;6.940;2022-12-18T01:35:10;26.70;;;18.77;;
13455;SDS011;6800;50.940;6.940;2022-12-18T01:39:11;23.63;;;18.17;;
13455;SDS011;6800;50.940;6.940;2022-12-18T01:43:13;20.37;;;16.43;;
13455;SDS011;6800;50.940;6.940;2022-12-18T01:51:32;24.77;;;18.30;;
13455;SDS011;6800;50.940;6.940;2022-12-18T01:55:36;23.23;;;19.10;;
13455;SDS011;6800;50.940;6.940;2022-12-18T01:59:43;25.40;;;18.67;;
13455;SDS011;6800;50.940;6.940;2022-12-18T02:03:46;27.73;;;20.00;;
13455;SDS011;6800;50.940;6.940;2022-12-18T02:07:56;24.20;;;19.15;;
13455;SDS011;6800;50.940;6.940;2022-12-18T02:20:32;20.37;;;16.10;;
13455;SDS011;6800;50.940;6.940;2022-12-18T02:29:37;21.13;;;17.37;;
13455;SDS011;6800;50.940;6.940;2022-12-18T02:33:42;18.40;;;16.33;;
13455;SDS011;6800;50.940;6.940;2022-12-18T02:37:44;20.50;;;16.13;;
13455;SDS011;6800;50.940;6.940;2022-12-18T02:41:46;19.70;;;16.57;;
13455;SDS011;6800;50.940;6.940;2022-12-18T02:45:56;19.27;;;15.43;;
13455;SDS011;6800;50.940;6.940;2022-12-18T02:53:59;19.07;;;14.67;;
13455;SDS011;6800;50.940;6.940;2022-12-18T03:02:20;20.23;;;17.23;;
13455;SDS011;6800;50.940;6.940;2022-12-18T03:06:26;20.47;;;17.93;;
13455;SDS011;6800;50.940;6.940;2022-12-18T03:10:31;18.80;;;16.80;;
13455;SDS011;6800;50.940;6.940;2022-12-18T03:14:35;19.37;;;17.10;;
13455;SDS011;6800;50.940;6.940;2022-12-18T03:18:48;20.83;;;16.40;;
13455;SDS011;6800;50.940;6.940;2022-12-18T03:22:55;21.80;;;16.67;;
13455;SDS011;6800;50.940;6.940;2022-12-18T03:27:02;20.87;;;17.40;;
13455;SDS011;6800;50.940;6.940;2022-12-18T03:31:07;20.17;;;16.23;;
13455;SDS011;6800;50.940;6.940;2022-12-18T03:35:11;20.87;;;16.90;;
13455;SDS011;6800;50.940;6.940;2022-12-18T03:39:14;20.63;;;15.87;;
13455;SDS011;6800;50.940;6.940;2022-12-18T03:47:53;21.83;;;16.57;;
13455;SDS011;6800;50.940;6.940;2022-12-18T03:52:37;21.33;;;16.93;;
13455;SDS011;6800;50.940;6.940;2022-12-18T03:56:41;24.67;;;17.80;;
13455;SDS011;6800;50.940;6.940;2022-12-18T04:00:45;20.17;;;16.80;;
13455;SDS011;6800;50.940;6.940;2022-12-18T04:04:47;20.73;;;16.53;;
13455;SDS011;6800;50.940;6.940;2022-12-18T04:08:51;20.43;;;17.17;;
13455;SDS011;6800;50.940;6.940;2022-12-18T04:12:55;22.70;;;18.00;;
13455;SDS011;6800;50.940;6.940;2022-12-18T04:16:56;19.77;;;16.93;;
13455;SDS011;6800;50.940;6.940;2022-12-18T04:20:56;22.33;;;16.95;;
13455;SDS011;6800;50.940;6.940;2022-12-18T04:24:57;21.90;;;17.48;;
13455;SDS011;6800;50.940;6.940;2022-12-18T04:28:57;21.05;;;18.77;;
13455;SDS011;6800;50.940;6.940;2022-12-18T04:32:57;24.07;;;17.93;;
13455;SDS011;6800;50.940;6.940;2022-12-18T04:36:57;26.00;;;18.73;;
13455;SDS011;6800;50.940;6.940;2022-12-18T04:40:58;26.03;;;19.17;;
13455;SDS011;6800;50.940;6.940;2022-12-18T04:44:58;23.93;;;17.47;;
13455;SDS011;6800;50.940;6.940;2022-12-18T04:48:58;23.55;;;19.73;;
13455;SDS011;6800;50.940;6.940;2022-12-18T04:52:58;25.03;;;19.20;;
13455;SDS011;6800;50.940;6.940;2022-12-18T04:56:59;23.57;;;18.93;;
13455;SDS011;6800;50.940;6.940;2022-12-18T05:01:00;24.70;;;21.03;;
13455;SDS011;6800;50.940;6.940;2022-12-18T05:05:00;23.97;;;20.87;;
13455;SDS011;6800;50.940;6.940;2022-12-18T05:09:00;25.55;;;19.45;;
13455;SDS011;6800;50.940;6.940;2022-12-18T05:13:01;24.30;;;19.95;;
13455;SDS011;6800;50.940;6.940;2022-12-18T05:17:01;23.50;;;19.63;;
13455;SDS011;6800;50.940;6.940;2022-12-18T05:21:02;24.93;;;19.17;;
13455;SDS011;6800;50.940;6.940;2022-12-18T05:25:03;22.97;;;18.73;;
13455;SDS011;6800;50.940;6.940;2022-12-18T05:29:04;25.23;;;19.47;;
13455;SDS011;6800;50.940;6.940;2022-12-18T05:33:04;26.10;;;18.03;;
13455;SDS011;6800;50.940;6.940;2022-12-18T05:37:04;24.93;;;19.63;;
13455;SDS011;6800;50.940;6.940;2022-12-18T05:41:05;22.88;;;18.77;;
13455;SDS011;6800;50.940;6.940;2022-12-18T05:45:06;22.43;;;18.83;;
13455;SDS011;6800;50.940;6.940;2022-12-18T05:49:07;20.83;;;18.27;;
13455;SDS011;6800;50.940;6.940;2022-12-18T05:53:07;24.30;;;19.97;;
13455;SDS011;6800;50.940;6.940;2022-12-18T05:57:07;23.57;;;18.93;;
13455;SDS011;6800;50.940;6.940;2022-12-18T06:01:10;23.93;;;19.07;;
13455;SDS011;6800;50.940;6.940;2022-12-18T06:05:13;24.20;;;18.77;;
13455;SDS011;6800;50.940;6.940;2022-12-18T06:09:13;25.20;;;19.70;;
13455;SDS011;6800;50.940;6.940;2022-12-18T06:13:14;24.00;;;19.23;;
13455;SDS011;6800;50.940;6.940;2022-12-18T06:17:14;23.15;;;19.65;;
13455;SDS011;6800;50.940;6.940;2022-12-18T06:21:14;24.40;;;19.15;;
13455;SDS011;6800;50.940;6.940;2022-12-18T06:25:14;25.07;;;19.50;;
13455;SDS011;6800;50.940;6.940;2022-12-18T06:29:15;22.03;;;19.40;;
13455;SDS011;6800;50.940;6.940;2022-12-18T06:33:15;25.73;;;18.80;;
13455;SDS011;6800;50.940;6.940;2022-12-18T06:37:15;26.03;;;19.50;;
13455;SDS011;6800;50.940;6.940;2022-12-18T06:41:17;26.43;;;20.97;;
13455;SDS011;6800;50.940;6.940;2022-12-18T06:45:19;23.27;;;20.73;;
13455;SDS011;6800;50.940;6.940;2022-12-18T06:49:19;22.30;;;18.63;;
13455;SDS011;6800;50.940;6.940;2022-12-18T06:53:19;21.63;;;18.37;;
13455;SDS011;6800;50.940;6.940;2022-12-18T06:57:20;26.13;;;20.90;;
13455;SDS011;6800;50.940;6.940;2022-12-18T07:01:20;25.65;;;20.67;;
13455;SDS011;6800;50.940;6.940;2022-12-18T07:05:21;23.43;;;19.90;;
13455;SDS011;6800;50.940;6.940;2022-12-18T07:09:21;26.60;;;20.10;;
13455;SDS011;6800;50.940;6.940;2022-12-18T07:13:22;24.67;;;18.40;;
13455;SDS011;6800;50.940;6.940;2022-12-18T07:17:22;23.97;;;19.33;;
13455;SDS011;6800;50.940;6.940;2022-12-18T07:21:23;26.93;;;19.33;;
13455;SDS011;6800;50.940;6.940;2022-12-18T07:25:24;23.97;;;19.17;;
13455;SDS011;6800;50.940;6.940;2022-12-18T07:29:24;25.77;;;19.67;;
13455;SDS011;6800;50.940;6.940;2022-12-18T07:33:24;28.33;;;19.03;;
13455;SDS011;6800;50.940;6.940;2022-12-18T07:37:25;29.17;;;21.67;;
13455;SDS011;6800;50.940;6.940;2022-12-18T07:41:25;27.60;;;21.23;;
13455;SDS011;6800;50.940;6.940;2022-12-18T07:45:26;25.73;;;20.65;;
13455;SDS011;6800;50.940;6.940;2022-12-18T07:49:26;24.23;;;20.40;;
13455;SDS011;6800;50.940;6.940;2022-12-18T07:53:27;25.77;;;20.33;;
13455;SDS011;6800;50.940;6.940;2022-12-18T07:57:27;25.73;;;20.50;;
13455;SDS011;6800;50.940;6.940;2022-12-18T08:01:27;23.85;;;20.50;;
13455;SDS011;6800;50.940;6.940;2022-12-18T08:05:27;29.90;;;22.23;;
13455;SDS011;6800;50.940;6.940;2022-12-18T08:09:28;25.77;;;20.63;;
13455;SDS011;6800;50.940;6.940;2022-12-18T08:13:28;27.33;;;20.90;;
13455;SDS011;6800;50.940;6.940;2022-12-18T08:17:28;27.63;;;22.03;;
13455;SDS011;6800;50.940;6.940;2022-12-18T08:21:29;25.52;;;22.27;;
13455;SDS011;6800;50.940;6.940;2022-12-18T08:25:30;24.80;;;19.20;;
13455;SDS011;6800;50.940;6.940;2022-12-18T08:29:30;27.05;;;20.90;;
13455;SDS011;6800;50.940;6.940;2022-12-18T08:33:32;24.47;;;20.53;;
13455;SDS011;6800;50.940;6.940;2022-12-18T08:37:32;25.53;;;20.13;;
13455;SDS011;6800;50.940;6.940;2022-12-18T08:41:33;26.43;;;21.03;;
13455;SDS011;6800;50.940;6.940;2022-12-18T08:45:33;24.73;;;19.40;;
13455;SDS011;6800;50.940;6.940;2022-12-18T08:49:34;24.42;;;19.23;;
13455;SDS011;6800;50.940;6.940;2022-12-18T08:53:35;24.83;;;19.80;;
13455;SDS011;6800;50.940;6.940;2022-12-18T08:57:35;23.40;;;19.43;;
13455;SDS011;6800;50.940;6.940;2022-12-18T09:01:36;23.53;;;19.43;;
13455;SDS011;6800;50.940;6.940;2022-12-18T09:05:36;21.40;;;17.77;;
13455;SDS011;6800;50.940;6.940;2022-12-18T09:09:36;19.08;;;17.02;;
13455;SDS011;6800;50.940;6.940;2022-12-18T09:13:37;21.93;;;18.70;;
13455;SDS011;6800;50.940;6.940;2022-12-18T09:17:37;21.23;;;17.40;;
13455;SDS011;6800;50.940;6.940;2022-12-18T09:21:37;21.90;;;16.90;;
13455;SDS011;6800;50.940;6.940;2022-12-18T09:25:39;21.50;;;18.30;;
13455;SDS011;6800;50.940;6.940;2022-12-18T09:29:39;21.33;;;17.40;;
13455;SDS011;6800;50.940;6.940;2022-12-18T09:33:39;22.95;;;17.10;;
13455;SDS011;6800;50.940;6.940;2022-12-18T09:37:40;20.70;;;15.90;;
13455;SDS011;6800;50.940;6.940;2022-12-18T09:41:46;19.43;;;17.20;;
13455;SDS011;6800;50.940;6.940;2022-12-18T09:45:51;20.83;;;15.67;;
13455;SDS011;6800;50.940;6.940;2022-12-18T09:49:56;21.80;;;17.13;;
13455;SDS011;6800;50.940;6.940;2022-12-18T09:54:02;20.37;;;15.90;;
13455;SDS011;6800;50.940;6.940;2022-12-18T09:58:10;21.20;;;18.03;;
13455;SDS011;6800;50.940;6.940;2022-12-18T10:02:20;23.00;;;18.73;;
13455;SDS011;6800;50.940;6.940;2022-12-18T10:15:06;19.47;;;15.17;;
13455;SDS011;6800;50.940;6.940;2022-12-18T10:19:34;18.23;;;16.20;;
13455;SDS011;6800;50.940;6.940;2022-12-18T10:28:21;18.73;;;15.20;;
13455;SDS011;6800;50.940;6.940;2022-12-18T10:32:25;19.10;;;16.40;;
13455;SDS011;6800;50.940;6.940;2022-12-18T10:36:27;17.90;;;14.73;;
13455;SDS011;6800;50.940;6.940;2022-12-18T10:40:28;19.17;;;15.63;;
13455;SDS011;6800;50.940;6.940;2022-12-18T10:44:29;21.87;;;16.10;;
13455;SDS011;6800;50.940;6.940;2022-12-18T10:48:30;19.60;;;16.10;;
13455;SDS011;6800;50.940;6.940;2022-12-18T10:52:31;20.97;;;15.70;;
13455;SDS011;6800;50.940;6.940;2022-12-18T10:56:32;19.57;;;15.87;;
13455;SDS011;6800;50.940;6.940;2022-12-18T11:00:34;20.90;;;16.17;;
13455;SDS011;6800;50.940;6.940;2022-12-18T11:04:36;18.10;;;14.97;;
13455;SDS011;6800;50.940;6.940;2022-12-18T11:08:57;17.50;;;14.37;;
13455;SDS011;6800;50.940;6.940;2022-12-18T11:17:34;19.90;;;15.17;;
13455;SDS011;6800;50.940;6.940;2022-12-18T11:21:39;20.87;;;16.17;;
13455;SDS011;6800;50.940;6.940;2022-12-18T11:25:41;20.03;;;17.33;;
13455;SDS011;6800;50.940;6.940;2022-12-18T11:29:52;21.27;;;16.00;;
13455;SDS011;6800;50.940;6.940;2022-12-18T11:34:12;19.97;;;15.73;;
13455;SDS011;6800;50.940;6.940;2022-12-18T11:38:23;18.77;;;15.13;;
13455;SDS011;6800;50.940;6.940;2022-12-18T11:42:39;21.50;;;16.00;;
13455;SDS011;6800;50.940;6.940;2022-12-18T11:46:47;23.43;;;16.03;;
13455;SDS011;6800;50.940;6.940;2022-12-18T11:50:52;23.67;;;17.20;;
13455;SDS011;6800;50.940;6.940;2022-12-18T11:54:55;20.70;;;16.23;;
13455;SDS011;6800;50.940;6.940;2022-12-18T11:59:13;23.37;;;17.43;;
13455;SDS011;6800;50.940;6.940;2022-12-18T12:16:16;28.17;;;17.63;;
13455;SDS011;6800;50.940;6.940;2022-12-18T12:20:35;23.47;;;17.07;;
13455;SDS011;6800;50.940;6.940;2022-12-18T12:33:43;22.73;;;17.67;;
13455;SDS011;6800;50.940;6.940;2022-12-18T12:38:35;23.97;;;17.87;;
13455;SDS011;6800;50.940;6.940;2022-12-18T12:47:00;21.53;;;17.37;;
13455;SDS011;6800;50.940;6.940;2022-12-18T12:55:22;23.37;;;18.77;;
13455;SDS011;6800;50.940;6.940;2022-12-18T12:59:27;27.23;;;19.57;;
13455;SDS011;6800;50.940;6.940;2022-12-18T13:03:46;24.93;;;18.07;;
13455;SDS011;6800;50.940;6.940;2022-12-18T13:07:56;25.23;;;18.60;;
13455;SDS011;6800;50.940;6.940;2022-12-18T13:12:03;24.70;;;18.77;;
13455;SDS011;6800;50.940;6.940;2022-12-18T13:16:27;23.97;;;18.33;;
13455;SDS011;6800;50.940;6.940;2022-12-18T13:20:32;24.40;;;19.83;;
13455;SDS011;6800;50.940;6.940;2022-12-18T13:24:34;24.07;;;19.17;;
13455;SDS011;6800;50.940;6.940;2022-12-18T13:32:47;27.17;;;19.20;;
13455;SDS011;6800;50.940;6.940;2022-12-18T13:36:49;23.70;;;18.87;;
13455;SDS011;6800;50.940;6.940;2022-12-18T13:44:51;33.07;;;21.77;;
13455;SDS011;6800;50.940;6.940;2022-12-18T13:49:01;28.03;;;20.77;;
13455;SDS011;6800;50.940;6.940;2022-12-18T13:53:05;25.33;;;19.50;;
13455;SDS011;6800;50.940;6.940;2022-12-18T13:57:24;27.33;;;20.43;;
13455;SDS011;6800;50.940;6.940;2022-12-18T14:01:25;23.97;;;18.77;;
13455;SDS011;6800;50.940;6.940;2022-12-18T14:05:32;27.65;;;20.45;;
13455;SDS011;6800;50.940;6.940;2022-12-18T14:09:36;28.70;;;21.37;;
13455;SDS011;6800;50.940;6.940;2022-12-18T14:13:41;26.33;;;19.17;;
13455;SDS011;6800;50.940;6.940;2022-12-18T14:17:42;26.27;;;19.93;;
13455;SDS011;6800;50.940;6.940;2022-12-18T14:21:47;27.60;;;20.17;;
13455;SDS011;6800;50.940;6.940;2022-12-18T14:25:49;26.33;;;21.07;;
13455;SDS011;6800;50.940;6.940;2022-12-18T14:29:49;26.27;;;19.43;;
13455;SDS011;6800;50.940;6.940;2022-12-18T14:33:51;25.27;;;20.13;;
13455;SDS011;6800;50.940;6.940;2022-12-18T14:37:52;26.90;;;19.97;;
13455;SDS011;6800;50.940;6.940;2022-12-18T14:41:52;26.70;;;20.65;;
13455;SDS011;6800;50.940;6.940;2022-12-18T14:49:54;31.70;;;23.80;;
13455;SDS011;6800;50.940;6.940;2022-12-18T14:53:55;24.17;;;20.57;;
13455;SDS011;6800;50.940;6.940;2022-12-18T14:57:57;30.37;;;22.00;;
13455;SDS011;6800;50.940;6.940;2022-12-18T15:10:47;27.50;;;21.63;;
13455;SDS011;6800;50.940;6.940;2022-12-18T15:14:48;27.70;;;21.13;;
13455;SDS011;6800;50.940;6.940;2022-12-18T15:18:49;28.00;;;22.07;;
13455;SDS011;6800;50.940;6.940;2022-12-18T15:22:49;25.70;;;20.33;;
13455;SDS011;6800;50.940;6.940;2022-12-18T15:26:49;27.83;;;20.90;;
13455;SDS011;6800;50.940;6.940;2022-12-18T15:35:16;28.87;;;21.67;;
13455;SDS011;6800;50.940;6.940;2022-12-18T15:39:19;31.07;;;21.87;;
13455;SDS011;6800;50.940;6.940;2022-12-18T15:43:22;30.42;;;24.20;;
13455;SDS011;6800;50.940;6.940;2022-12-18T15:47:36;31.50;;;23.70;;
13455;SDS011;6800;50.940;6.940;2022-12-18T15:51:36;33.75;;;24.85;;
13455;SDS011;6800;50.940;6.940;2022-12-18T15:55:38;30.27;;;22.80;;
13455;SDS011;6800;50.940;6.940;2022-12-18T15:59:57;31.53;;;22.30;;
13455;SDS011;6800;50.940;6.940;2022-12-18T16:03:58;30.70;;;25.67;;
13455;SDS011;6800;50.940;6.940;2022-12-18T16:07:58;37.03;;;28.53;;
13455;SDS011;6800;50.940;6.940;2022-12-18T16:12:01;30.17;;;23.07;;
13455;SDS011;6800;50.940;6.940;2022-12-18T16:16:02;29.73;;;23.60;;
13455;SDS011;6800;50.940;6.940;2022-12-18T16:20:02;34.70;;;24.97;;
13455;SDS011;6800;50.940;6.940;2022-12-18T16:24:03;33.50;;;24.23;;
13455;SDS011;6800;50.940;6.940;2022-12-18T16:28:03;32.70;;;24.27;;
13455;SDS011;6800;50.940;6.940;2022-12-18T16:32:04;31.50;;;24.50;;
13455;SDS011;6800;50.940;6.940;2022-12-18T16:36:04;33.63;;;24.83;;
13455;SDS011;6800;50.940;6.940;2022-12-18T16:40:05;31.47;;;24.33;;
13455;SDS011;6800;50.940;6.940;2022-12-18T16:44:08;30.90;;;24.60;;
13455;SDS011;6800;50.940;6.940;2022-12-18T16:48:10;30.33;;;24.07;;
13455;SDS011;6800;50.940;6.940;2022-12-18T16:52:10;33.60;;;24.40;;
13455;SDS011;6800;50.940;6.940;2022-12-18T16:56:11;34.57;;;24.30;;
13455;SDS011;6800;50.940;6.940;2022-12-18T17:00:11;32.25;;;24.00;;
13455;SDS011;6800;50.940;6.940;2022-12-18T17:04:12;32.83;;;24.23;;
13455;SDS011;6800;50.940;6.940;2022-12-18T17:08:12;34.13;;;25.03;;
13455;SDS011;6800;50.940;6.940;2022-12-18T17:12:12;33.45;;;25.65;;
13455;SDS011;6800;50.940;6.940;2022-12-18T17:16:13;34.22;;;25.42;;
13455;SDS011;6800;50.940;6.940;2022-12-18T17:20:13;35.00;;;25.00;;
13455;SDS011;6800;50.940;6.940;2022-12-18T17:24:13;34.83;;;25.97;;
13455;SDS011;6800;50.940;6.940;2022-12-18T17:28:14;34.50;;;25.47;;
13455;SDS011;6800;50.940;6.940;2022-12-18T17:32:15;39.40;;;25.50;;
13455;SDS011;6800;50.940;6.940;2022-12-18T17:36:16;36.00;;;26.10;;
13455;SDS011;6800;50.940;6.940;2022-12-18T17:40:16;38.13;;;26.53;;
13455;SDS011;6800;50.940;6.940;2022-12-18T17:44:16;32.90;;;26.83;;
13455;SDS011;6800;50.940;6.940;2022-12-18T17:48:17;38.23;;;26.50;;
13455;SDS011;6800;50.940;6.940;2022-12-18T17:52:18;37.23;;;26.77;;
13455;SDS011;6800;50.940;6.940;2022-12-18T17:56:19;37.93;;;26.47;;
13455;SDS011;6800;50.940;6.940;2022-12-18T18:00:20;36.10;;;28.07;;
13455;SDS011;6800;50.940;6.940;2022-12-18T18:04:21;35.03;;;25.67;;
13455;SDS011;6800;50.940;6.940;2022-12-18T18:08:21;36.80;;;26.43;;
13455;SDS011;6800;50.940;6.940;2022-12-18T18:12:22;42.40;;;28.17;;
13455;SDS011;6800;50.940;6.940;2022-12-18T18:16:41;40.00;;;27.70;;
13455;SDS011;6800;50.940;6.940;2022-12-18T18:20:43;39.47;;;28.13;;
13455;SDS011;6800;50.940;6.940;2022-12-18T18:24:43;40.38;;;28.55;;
13455;SDS011;6800;50.940;6.940;2022-12-18T18:28:44;41.20;;;28.97;;
13455;SDS011;6800;50.940;6.940;2022-12-18T18:32:44;36.88;;;27.10;;
13455;SDS011;6800;50.940;6.940;2022-12-18T18:36:44;39.95;;;28.85;;
13455;SDS011;6800;50.940;6.940;2022-12-18T18:40:45;39.30;;;27.93;;
13455;SDS011;6800;50.940;6.940;2022-12-18T18:44:45;44.60;;;28.80;;
13455;SDS011;6800;50.940;6.940;2022-12-18T18:48:45;39.13;;;27.40;;
13455;SDS011;6800;50.940;6.940;2022-12-18T18:52:45;39.13;;;27.52;;
13455;SDS011;6800;50.940;6.940;2022-12-18T18:56:47;39.05;;;28.27;;
13455;SDS011;6800;50.940;6.940;2022-12-18T19:00:57;42.00;;;27.97;;
13455;SDS011;6800;50.940;6.940;2022-12-18T19:04:59;42.83;;;27.97;;
13455;SDS011;6800;50.940;6.940;2022-12-18T19:09:00;39.30;;;28.23;;
13455;SDS011;6800;50.940;6.940;2022-12-18T19:13:01;40.10;;;27.47;;
13455;SDS011;6800;50.940;6.940;2022-12-18T19:17:31;39.27;;;26.87;;
13455;SDS011;6800;50.940;6.940;2022-12-18T19:21:31;37.90;;;27.33;;
13455;SDS011;6800;50.940;6.940;2022-12-18T19:25:35;40.77;;;27.60;;
13455;SDS011;6800;50.940;6.940;2022-12-18T19:29:36;39.90;;;27.80;;
13455;SDS011;6800;50.940;6.940;2022-12-18T19:33:37;38.75;;;27.00;;
13455;SDS011;6800;50.940;6.940;2022-12-18T19:37:40;37.17;;;25.53;;
13455;SDS011;6800;50.940;6.940;2022-12-18T19:41:40;42.00;;;27.03;;
13455;SDS011;6800;50.940;6.940;2022-12-18T19:45:41;38.83;;;27.73;;
13455;SDS011;6800;50.940;6.940;2022-12-18T19:49:41;40.53;;;26.90;;
13455;SDS011;6800;50.940;6.940;2022-12-18T19:53:42;38.55;;;27.65;;
13455;SDS011;6800;50.940;6.940;2022-12-18T19:57:42;41.17;;;28.17;;
13455;SDS011;6800;50.940;6.940;2022-12-18T20:01:43;43.13;;;28.87;;
13455;SDS011;6800;50.940;6.940;2022-12-18T20:05:43;41.88;;;29.40;;
13455;SDS011;6800;50.940;6.940;2022-12-18T20:09:44;42.22;;;26.85;;
13455;SDS011;6800;50.940;6.940;2022-12-18T20:13:44;39.72;;;27.52;;
13455;SDS011;6800;50.940;6.940;2022-12-18T20:17:44;39.30;;;27.27;;
13455;SDS011;6800;50.940;6.940;2022-12-18T20:21:44;39.47;;;26.70;;
13455;SDS011;6800;50.940;6.940;2022-12-18T20:25:45;42.37;;;27.83;;
13455;SDS011;6800;50.940;6.940;2022-12-18T20:29:45;37.97;;;26.38;;
13455;SDS011;6800;50.940;6.940;2022-12-18T20:33:46;39.67;;;26.07;;
13455;SDS011;6800;50.940;6.940;2022-12-18T20:37:46;40.00;;;28.03;;
13455;SDS011;6800;50.940;6.940;2022-12-18T20:41:46;37.85;;;25.92;;
13455;SDS011;6800;50.940;6.940;2022-12-18T20:45:47;44.50;;;28.77;;
13455;SDS011;6800;50.940;6.940;2022-12-18T20:49:47;37.37;;;27.03;;
13455;SDS011;6800;50.940;6.940;2022-12-18T20:53:47;45.97;;;28.20;;
13455;SDS011;6800;50.940;6.940;2022-12-18T20:57:47;39.43;;;26.57;;
13455;SDS011;6800;50.940;6.940;2022-12-18T21:01:48;45.73;;;29.30;;
13455;SDS011;6800;50.940;6.940;2022-12-18T21:05:48;42.23;;;27.23;;
13455;SDS011;6800;50.940;6.940;2022-12-18T21:09:49;41.57;;;28.47;;
13455;SDS011;6800;50.940;6.940;2022-12-18T21:13:49;36.40;;;26.67;;
13455;SDS011;6800;50.940;6.940;2022-12-18T21:17:49;41.57;;;28.20;;
13455;SDS011;6800;50.940;6.940;2022-12-18T21:21:50;39.03;;;26.17;;
13455;SDS011;6800;50.940;6.940;2022-12-18T21:25:51;40.07;;;26.37;;
13455;SDS011;6800;50.940;6.940;2022-12-18T21:29:51;37.63;;;25.23;;
13455;SDS011;6800;50.940;6.940;2022-12-18T21:33:51;41.83;;;27.48;;
13455;SDS011;6800;50.940;6.940;2022-12-18T21:37:51;41.17;;;26.40;;
13455;SDS011;6800;50.940;6.940;2022-12-18T21:41:52;42.80;;;27.27;;
13455;SDS011;6800;50.940;6.940;2022-12-18T21:46:10;42.23;;;27.87;;
13455;SDS011;6800;50.940;6.940;2022-12-18T21:50:11;42.47;;;28.93;;
13455;SDS011;6800;50.940;6.940;2022-12-18T21:54:11;44.33;;;29.43;;
13455;SDS011;6800;50.940;6.940;2022-12-18T21:58:12;45.83;;;29.97;;
13455;SDS011;6800;50.940;6.940;2022-12-18T22:02:14;42.80;;;30.50;;
13455;SDS011;6800;50.940;6.940;2022-12-18T22:06:17;45.10;;;28.90;;
13455;SDS011;6800;50.940;6.940;2022-12-18T22:10:17;44.43;;;29.80;;
13455;SDS011;6800;50.940;6.940;2022-12-18T22:14:17;51.00;;;31.80;;
13455;SDS011;6800;50.940;6.940;2022-12-18T22:18:18;43.97;;;29.00;;
13455;SDS011;6800;50.940;6.940;2022-12-18T22:22:20;47.27;;;31.33;;
13455;SDS011;6800;50.940;6.940;2022-12-18T22:26:21;44.20;;;29.52;;
13455;SDS011;6800;50.940;6.940;2022-12-18T22:30:22;48.83;;;30.67;;
13455;SDS011;6800;50.940;6.940;2022-12-18T22:34:22;49.40;;;30.35;;
13455;SDS011;6800;50.940;6.940;2022-12-18T22:38:23;42.70;;;29.60;;
13455;SDS011;6800;50.940;6.940;2022-12-18T22:42:23;49.20;;;31.10;;
13455;SDS011;6800;50.940;6.940;2022-12-18T22:46:24;42.07;;;29.97;;
13455;SDS011;6800;50.940;6.940;2022-12-18T22:50:25;46.83;;;32.00;;
13455;SDS011;6800;50.940;6.940;2022-12-18T22:54:26;50.70;;;33.60;;
13455;SDS011;6800;50.940;6.940;2022-12-18T22:58:26;45.05;;;30.25;;
13455;SDS011;6800;50.940;6.940;2022-12-18T23:02:26;51.43;;;32.67;;
13455;SDS011;6800;50.940;6.940;2022-12-18T23:06:27;48.83;;;31.17;;
13455;SDS011;6800;50.940;6.940;2022-12-18T23:10:27;55.07;;;34.17;;
13455;SDS011;6800;50.940;6.940;2022-12-18T23:14:27;59.83;;;36.33;;
13455;SDS011;6800;50.940;6.940;2022-12-18T23:18:28;47.70;;;30.90;;
13455;SDS011;6800;50.940;6.940;2022-12-18T23:22:29;47.77;;;31.07;;
13455;SDS011;6800;50.940;6.940;2022-12-18T23:26:29;48.00;;;32.10;;
13455;SDS011;6800;50.940;6.940;2022-12-18T23:30:30;47.03;;;30.23;;
13455;SDS011;6800;50.940;6.940;2022-12-18T23:34:31;47.43;;;31.20;;
13455;SDS011;6800;50.940;6.940;2022-12-18T23:38:32;49.13;;;31.63;;
13455;SDS011;6800;50.940;6.940;2022-12-18T23:42:33;47.83;;;31.80;;
13455;SDS011;6800;50.940;6.940;2022-12-18T23:46:33;48.07;;;31.90;;
13455;SDS011;6800;50.940;6.940;2022-12-18T23:50:34;46.13;;;31.23;;
13455;SDS011;6800;50.940;6.940;2022-12-18T23:54:35;49.87;;;32.10;;
13455;SDS011;6800;50.940;6.940;2022-12-18T23:58:35;50.67;;;32.73;;
